Time;durP1;ratioP1;P1;durP2;ratioP2;P2;SDS_P1;SDS_P2;PMS_P1;PMS_P2;Temp;Humidity;BMP_temperature;BMP_pressure;BME280_temperature;BME280_humidity;BME280_pressure;Samples;Min_cycle;Max_cycle;Signal;HPM_P1;HPM_P2
2022/08/07 00:02:09;;;;;;;2.67;2.58;;;17.40;99.90;;;17.69;72.95;102602.91;5053155;28;20037;-64
2022/08/07 00:04:58;;;;;;;3.08;2.97;;;17.30;99.90;;;17.59;73.70;102595.84;5053068;28;20099;-64
2022/08/07 00:07:27;;;;;;;2.78;2.67;;;17.20;99.90;;;17.54;74.73;102596.75;5052926;28;20064;-64
2022/08/07 00:10:10;;;;;;;2.70;2.60;;;17.10;99.90;;;17.07;74.94;102517.59;5051215;28;20052;-64
2022/08/07 00:12:55;;;;;;;2.85;2.75;;;17.10;99.90;;;17.50;74.63;102601.22;5052975;28;20502;-64
2022/08/07 00:15:29;;;;;;;2.95;2.85;;;17.10;99.90;;;17.51;74.32;102597.69;5052818;28;20037;-64
2022/08/07 00:18:07;;;;;;;2.50;2.40;;;17.10;99.90;;;17.48;73.85;102597.66;5068368;28;20056;-64
2022/08/07 00:20:48;;;;;;;2.58;2.47;;;17.10;99.90;;;17.51;73.82;102599.47;5052837;28;20091;-64
2022/08/07 00:23:18;;;;;;;3.13;3.03;;;17.20;99.90;;;17.55;73.22;102598.53;5052801;28;20123;-64
2022/08/07 00:25:49;;;;;;;3.05;2.95;;;17.10;99.90;;;17.55;72.39;102598.53;5052585;28;20275;-64
2022/08/07 00:28:28;;;;;;;2.85;2.75;;;17.20;99.90;;;17.44;72.19;102578.97;5052881;28;20045;-64
2022/08/07 00:31:04;;;;;;;2.50;2.40;;;17.20;99.90;;;17.63;72.95;102586.00;5052714;28;20045;-64
2022/08/07 00:33:34;;;;;;;2.97;2.88;;;17.20;99.90;;;17.62;73.23;102590.47;5068106;28;20045;-64
2022/08/07 00:36:04;;;;;;;2.60;2.50;;;17.20;99.90;;;17.61;73.66;102587.81;5052547;28;20033;-64
2022/08/07 00:38:35;;;;;;;2.88;2.78;;;17.20;99.90;;;17.59;72.97;102585.16;5052416;28;20453;-64
2022/08/07 00:41:07;;;;;;;2.80;2.70;;;17.20;99.90;;;17.58;73.03;102577.09;5052735;28;20087;-64
2022/08/07 00:43:43;;;;;;;3.00;2.90;;;17.20;99.90;;;17.57;72.88;102581.59;5052420;28;20132;-64
2022/08/07 00:46:31;;;;;;;2.50;2.40;;;17.20;99.90;;;17.27;73.00;102538.00;5052606;28;20128;-64
2022/08/07 00:49:01;;;;;;;2.60;2.50;;;17.20;99.90;;;17.47;73.57;102579.81;5052391;28;20059;-64
2022/08/07 00:51:31;;;;;;;2.40;2.30;;;17.10;99.90;;;17.56;73.39;102579.78;5052338;28;20047;-64
2022/08/07 00:54:21;;;;;;;2.50;2.40;;;17.10;99.90;;;17.38;73.88;102552.22;5052316;28;20458;-64
2022/08/07 00:56:50;;;;;;;;;;;17.10;99.90;;;17.47;73.65;102574.47;5052752;28;20040;-64
2022/08/07 00:59:19;;;;;;;2.80;2.70;;;17.10;99.90;;;17.52;72.80;102571.78;5050951;28;20362;-65
2022/08/07 01:02:04;;;;;;;2.55;2.45;;;17.10;99.90;;;17.46;72.89;102567.31;5051339;28;20049;-65
2022/08/07 01:04:42;;;;;;;3.00;2.90;;;17.10;99.90;;;17.44;73.19;102576.28;5052498;28;20045;-64
2022/08/07 01:07:12;;;;;;;2.70;2.60;;;17.10;99.90;;;17.26;73.60;102568.34;5052690;28;20051;-64
2022/08/07 01:09:42;;;;;;;2.70;2.60;;;16.90;99.90;;;16.95;72.60;102571.16;5050812;28;20500;-65
2022/08/07 01:12:31;;;;;;;2.70;2.60;;;16.70;99.90;;;16.56;73.53;102546.28;5052416;28;20068;-64
2022/08/07 01:15:01;;;;;;;2.80;2.70;;;16.40;99.90;;;16.67;73.81;102556.06;5052668;28;20464;-64
2022/08/07 01:17:32;;;;;;;2.75;2.65;;;16.30;99.90;;;16.74;74.42;102555.13;5051100;28;20084;-64
2022/08/07 01:20:07;;;;;;;2.67;2.58;;;16.30;99.90;;;16.88;74.40;102555.09;5067538;28;20080;-65
2022/08/07 01:22:39;;;;;;;2.65;2.55;;;16.50;99.90;;;17.01;73.67;102562.22;5072023;28;20068;-65
2022/08/07 01:25:25;;;;;;;2.40;2.30;;;16.50;99.90;;;17.12;73.17;102561.28;5071546;28;20094;-65
2022/08/07 01:28:14;;;;;;;2.70;2.60;;;16.70;99.90;;;17.22;72.63;102562.13;5071619;28;20494;-64
2022/08/07 01:30:44;;;;;;;2.63;2.53;;;16.80;99.90;;;17.30;72.16;102578.13;5054694;28;20045;-65
2022/08/07 01:33:16;;;;;;;3.33;3.22;;;16.90;99.90;;;17.27;72.17;102559.41;5054896;28;20163;-65
2022/08/07 01:35:46;;;;;;;2.92;2.83;;;16.90;99.90;;;17.25;73.31;102558.56;5054963;28;20494;-65
2022/08/07 01:38:26;;;;;;;2.72;2.63;;;16.90;99.90;;;17.12;72.93;102558.59;5054671;28;20071;-65
2022/08/07 01:41:04;;;;;;;2.92;2.83;;;16.80;99.90;;;17.09;73.99;102558.59;5054843;28;20135;-65
2022/08/07 01:43:35;;;;;;;2.50;2.40;;;16.70;99.90;;;17.10;74.23;102559.47;5071268;28;20057;-65
2022/08/07 01:46:07;;;;;;;2.60;2.50;;;16.80;99.90;;;16.77;75.15;102551.56;5055904;28;20053;-65
2022/08/07 01:48:43;;;;;;;2.65;2.55;;;16.50;99.90;;;16.66;76.25;102553.41;5054519;28;20053;-65
2022/08/07 01:51:22;;;;;;;2.75;2.65;;;16.30;99.90;;;16.63;76.28;102562.31;5071246;28;20049;-65
2022/08/07 01:54:14;;;;;;;2.90;2.80;;;16.30;99.90;;;16.63;76.33;102553.38;5071223;28;20041;-65
2022/08/07 01:57:08;;;;;;;2.75;2.65;;;16.30;99.90;;;16.66;76.96;102548.06;5071115;28;20051;-65
2022/08/07 01:59:57;;;;;;;3.03;2.92;;;16.30;99.90;;;16.77;76.61;102551.56;5054311;28;20037;-65
2022/08/07 02:02:32;;;;;;;2.90;2.80;;;16.30;99.90;;;16.64;76.33;102553.41;5054662;28;20075;-65
2022/08/07 02:05:29;;;;;;;2.58;2.47;;;16.30;99.90;;;16.70;76.38;102549.81;5054169;28;20095;-65
2022/08/07 02:08:23;;;;;;;2.88;2.78;;;16.30;99.90;;;16.63;75.41;102548.94;5054060;28;20075;-65
2022/08/07 02:10:58;;;;;;;2.83;2.72;;;16.30;99.90;;;16.63;75.04;102540.94;5071126;28;20561;-67
2022/08/07 02:13:31;;;;;;;2.65;2.55;;;16.30;99.90;;;16.57;76.03;102548.94;5054179;28;20052;-65
2022/08/07 02:16:23;;;;;;;2.70;2.60;;;16.30;99.90;;;16.58;76.87;102540.06;5054135;28;20037;-67
2022/08/07 02:19:03;;;;;;;3.38;3.28;;;16.20;99.90;;;16.63;77.22;102543.59;5054096;28;20056;-73
2022/08/07 02:21:55;;;;;;;3.42;3.13;;;16.20;99.90;;;16.70;77.05;102545.38;5070688;28;20055;-69
2022/08/07 02:24:27;;;;;;;2.60;2.50;;;16.30;99.90;;;16.66;76.42;102527.56;5070483;28;20049;-68
2022/08/07 02:26:59;;;;;;;2.95;2.85;;;16.30;99.90;;;16.75;76.75;102532.88;5053891;28;20543;-65
2022/08/07 02:29:31;;;;;;;2.80;2.70;;;16.30;99.90;;;16.46;77.36;102523.13;5070628;28;20091;-65
2022/08/07 02:32:05;;;;;;;3.17;3.08;;;16.10;99.90;;;15.95;76.48;102524.09;5070083;28;20056;-65
2022/08/07 02:34:40;;;;;;;2.85;2.75;;;15.60;99.90;;;15.97;77.20;102527.63;5053533;28;20053;-65
2022/08/07 02:37:22;;;;;;;2.97;2.88;;;15.50;99.90;;;16.06;77.13;102530.31;5053461;28;20072;-64
2022/08/07 02:39:53;;;;;;;3.10;3.00;;;15.70;99.90;;;15.95;76.91;102526.75;5053670;28;20083;-64
2022/08/07 02:42:47;;;;;;;3.05;2.92;;;15.60;99.90;;;16.11;76.89;102532.06;5053340;28;20384;-64
2022/08/07 02:45:19;;;;;;;2.78;2.67;;;15.70;99.90;;;16.23;76.48;102526.72;5054971;28;20068;-64
2022/08/07 02:48:07;;;;;;;2.60;2.50;;;15.80;99.90;;;16.22;76.56;102519.59;5054842;28;20121;-64
2022/08/07 02:50:44;;;;;;;;;;;15.90;99.90;;;16.48;76.64;102532.94;5053872;28;20045;-64
2022/08/07 02:53:22;;;;;;;2.90;2.80;;;16.10;99.90;;;16.57;76.65;102532.06;5053343;28;19921;-64
2022/08/07 02:55:58;;;;;;;2.83;2.72;;;16.20;99.90;;;16.52;76.43;102520.47;5053461;28;20120;-64
2022/08/07 02:58:37;;;;;;;2.80;2.70;;;16.10;99.90;;;16.73;76.51;102533.78;5070037;28;20051;-64
2022/08/07 03:01:16;;;;;;;2.75;2.65;;;16.30;99.90;;;16.69;76.08;102529.31;5069963;28;20049;-64
2022/08/07 03:04:06;;;;;;;2.70;2.60;;;16.30;99.90;;;16.41;76.45;102522.25;5070026;28;20072;-64
2022/08/07 03:06:42;;;;;;;3.08;2.97;;;16.10;99.90;;;16.17;76.43;102521.41;5052977;28;20148;-64
2022/08/07 03:09:17;;;;;;;8.77;6.22;;;15.70;99.90;;;15.87;76.93;102524.06;5069893;28;20227;-64
2022/08/07 03:12:07;;;;;;;3.05;2.95;;;15.50;99.90;;;15.85;76.75;102522.28;5053191;28;20047;-64
2022/08/07 03:14:52;;;;;;;3.20;3.10;;;15.50;99.90;;;15.57;76.61;102515.13;5052761;28;20045;-64
2022/08/07 03:17:21;;;;;;;2.50;2.40;;;15.30;99.90;;;15.77;77.25;102524.06;5053048;28;20041;-64
2022/08/07 03:19:51;;;;;;;2.72;2.63;;;15.30;99.90;;;15.24;77.19;102401.28;5052894;28;20042;-64
2022/08/07 03:22:25;;;;;;;2.97;2.88;;;15.50;99.90;;;15.59;77.31;102450.22;5052814;28;20127;-64
2022/08/07 03:24:58;;;;;;;3.20;3.10;;;15.60;99.90;;;16.07;77.44;102510.72;5069347;28;20145;-64
2022/08/07 03:27:30;;;;;;;2.70;2.60;;;15.70;99.90;;;16.20;78.01;102516.03;5052716;28;20049;-64
2022/08/07 03:30:21;;;;;;;2.70;2.60;;;15.80;99.90;;;16.27;78.17;102522.28;5054001;28;20049;-64
2022/08/07 03:32:53;;;;;;;2.90;2.80;;;16.00;99.90;;;16.35;77.39;102512.47;5052524;28;20155;-65
2022/08/07 03:35:31;;;;;;;2.80;2.70;;;16.00;99.90;;;16.44;76.96;102516.88;5052540;28;20429;-65
2022/08/07 03:38:19;;;;;;;2.53;2.42;;;16.10;99.90;;;16.63;77.02;102519.56;5052555;28;20095;-65
2022/08/07 03:40:59;;;;;;;3.10;3.00;;;16.20;99.90;;;16.67;76.80;102513.31;5069154;28;20053;-64
2022/08/07 03:43:29;;;;;;;2.60;2.50;;;16.30;99.90;;;16.64;77.08;102521.34;5052107;28;20049;-65
2022/08/07 03:46:03;;;;;;;2.85;2.75;;;16.30;99.90;;;16.57;76.90;102505.34;5051630;28;20566;-65
2022/08/07 03:48:50;;;;;;;2.85;2.75;;;16.30;99.90;;;16.57;76.18;102508.88;5069046;28;20056;-65
2022/08/07 03:51:36;;;;;;;3.05;2.95;;;16.30;99.90;;;16.41;76.13;102484.84;5068962;28;20409;-65
2022/08/07 03:54:22;;;;;;;3.10;3.00;;;16.20;99.90;;;16.62;77.04;102519.56;5068718;28;20045;-64
2022/08/07 03:57:13;;;;;;;3.00;2.90;;;16.20;99.90;;;16.36;77.60;102502.66;5069055;28;20047;-64
2022/08/07 04:00:01;;;;;;;2.83;2.72;;;16.10;99.90;;;15.94;77.21;102492.94;5053418;28;20128;-65
2022/08/07 04:02:44;;;;;;;3.25;3.15;;;15.70;99.90;;;15.49;78.29;102487.56;5053401;28;20052;-65
2022/08/07 04:05:23;;;;;;;2.92;2.83;;;15.10;99.90;;;15.60;78.66;102499.16;5052370;28;20049;-65
2022/08/07 04:08:12;;;;;;;3.25;3.15;;;15.20;99.90;;;15.67;77.85;102519.59;5052241;28;20399;-65
2022/08/07 04:10:48;;;;;;;2.72;2.63;;;15.30;99.90;;;15.37;75.43;102502.63;5068515;28;20049;-64
2022/08/07 04:13:24;;;;;;;2.90;2.80;;;15.10;99.90;;;15.35;75.59;102511.50;5051687;28;20056;-65
2022/08/07 04:15:55;;;;;;;2.60;2.50;;;15.00;99.90;;;15.40;76.12;102501.75;5051892;28;20053;-65
2022/08/07 04:18:27;;;;;;;3.22;3.13;;;15.10;99.90;;;15.49;76.51;102512.47;5052049;28;20517;-64
2022/08/07 04:21:16;;;;;;;2.90;2.80;;;15.10;99.90;;;15.54;76.39;102507.13;5051977;28;20149;-64
2022/08/07 04:23:45;;;;;;;2.90;2.80;;;15.20;99.90;;;15.56;76.53;102514.28;5051580;28;20490;-64
2022/08/07 04:26:34;;;;;;;3.00;2.90;;;15.20;99.90;;;15.61;76.63;102512.50;5051902;28;20045;-64
2022/08/07 04:29:03;;;;;;;3.03;2.92;;;15.30;99.90;;;15.64;76.51;102509.81;5051623;28;20049;-64
2022/08/07 04:31:32;;;;;;;3.03;2.92;;;15.30;99.90;;;15.68;76.99;102513.41;5051498;28;20502;-64
2022/08/07 04:34:24;;;;;;;2.97;2.88;;;15.40;99.90;;;15.49;77.08;102479.56;5051617;28;20037;-64
2022/08/07 04:37:01;;;;;;;;;;;15.40;99.90;;;15.77;77.26;102524.06;5052043;28;20441;-64
2022/08/07 04:39:35;;;;;;;2.90;2.80;;;15.50;99.90;;;15.72;77.47;102518.72;5052645;28;20437;-64
2022/08/07 04:42:12;;;;;;;2.83;2.72;;;15.50;99.90;;;15.74;77.27;102532.03;5052663;28;20094;-64
2022/08/07 04:44:41;;;;;;;3.05;2.95;;;15.50;99.90;;;15.76;77.13;102519.59;5051299;28;20053;-64
2022/08/07 04:47:41;;;;;;;3.00;2.90;;;15.50;99.90;;;15.78;77.42;102526.72;5068240;28;20087;-64
2022/08/07 04:50:39;;;;;;;3.00;2.90;;;15.50;99.90;;;15.88;77.47;102533.84;5068064;28;20143;-64
2022/08/07 04:53:22;;;;;;;2.90;2.80;;;15.50;99.90;;;15.95;77.10;102524.09;5051418;28;20049;-64
2022/08/07 04:56:20;;;;;;;2.90;2.80;;;15.60;99.90;;;16.14;76.88;102531.19;5051119;28;20106;-64
2022/08/07 04:59:16;;;;;;;3.15;3.05;;;15.80;99.90;;;16.33;76.85;102530.28;5067794;28;20041;-64
2022/08/07 05:02:13;;;;;;;2.80;2.70;;;15.90;99.90;;;16.60;77.87;102543.63;5051263;28;20055;-64
2022/08/07 05:04:59;;;;;;;3.22;3.13;;;16.10;99.90;;;16.72;78.22;102538.25;5067952;28;20505;-64
2022/08/07 05:07:37;;;;;;;2.92;2.83;;;16.30;99.90;;;16.89;78.53;102536.41;5051092;28;20144;-64
2022/08/07 05:10:25;;;;;;;2.78;2.67;;;16.40;99.90;;;16.85;77.59;102515.94;5051538;28;20052;-64
2022/08/07 05:12:59;;;;;;;2.90;2.80;;;16.60;99.90;;;17.15;77.63;102541.63;5068056;28;20045;-64
2022/08/07 05:15:52;;;;;;;3.20;3.10;;;16.70;99.90;;;17.39;78.79;102543.28;5067685;28;20055;-64
2022/08/07 05:18:28;;;;;;;2.63;2.53;;;16.90;99.90;;;17.46;77.92;102542.38;5051393;28;20048;-64
2022/08/07 05:21:03;;;;;;;3.30;3.20;;;17.10;99.90;;;17.61;78.18;102550.34;5051064;28;20049;-64
2022/08/07 05:23:41;;;;;;;2.83;2.72;;;17.20;99.90;;;17.63;76.51;102557.47;5067729;28;20387;-64
2022/08/07 05:26:15;;;;;;;3.08;2.97;;;17.30;99.90;;;17.65;75.56;102557.44;5050896;28;20052;-64
2022/08/07 05:28:57;;;;;;;2.70;2.60;;;17.30;99.90;;;17.60;75.58;102524.47;5067830;28;20494;-64
2022/08/07 05:31:33;;;;;;;2.90;2.80;;;17.40;99.90;;;17.89;74.88;102551.91;5067662;28;20502;-64
2022/08/07 05:34:11;;;;;;;2.67;2.58;;;17.60;99.90;;;18.15;74.66;102549.03;5067782;28;20506;-64
2022/08/07 05:36:47;;;;;;;2.60;2.50;;;17.80;99.90;;;18.26;74.53;102555.16;5050765;28;20045;-64
2022/08/07 05:39:47;;;;;;;2.95;2.85;;;17.90;99.90;;;18.31;75.17;102562.25;5050571;28;20092;-64
2022/08/07 05:42:36;;;;;;;2.88;2.78;;;18.00;99.90;;;18.52;75.33;102564.81;5050730;28;20060;-64
2022/08/07 05:45:11;;;;;;;3.40;3.30;;;18.10;99.90;;;18.59;75.00;102562.94;5050663;28;20049;-64
2022/08/07 05:48:00;;;;;;;2.78;2.67;;;18.30;99.90;;;18.70;74.94;102563.69;5067728;28;20087;-65
2022/08/07 05:50:44;;;;;;;2.85;2.75;;;18.40;99.90;;;18.94;75.03;102566.13;5067475;28;20080;-64
2022/08/07 05:53:16;;;;;;;3.35;3.25;;;18.60;99.90;;;19.14;75.10;102568.56;5067316;28;20055;-65
2022/08/07 05:56:09;;;;;;;2.80;2.70;;;18.80;99.90;;;19.31;74.99;102561.19;5050657;28;20041;-66
2022/08/07 05:58:46;;;;;;;2.63;2.53;;;19.00;99.90;;;19.18;74.00;102514.81;5067326;28;20049;-65
2022/08/07 06:01:26;;;;;;;2.72;2.63;;;19.10;99.90;;;19.50;73.09;102558.25;5050589;28;20453;-65
2022/08/07 06:04:07;;;;;;;2.90;2.80;;;19.20;99.90;;;19.62;70.65;102557.19;5050578;28;20540;-65
2022/08/07 06:06:40;;;;;;;3.00;2.90;;;19.40;99.90;;;19.77;70.12;102565.91;5050735;28;20057;-65
2022/08/07 06:09:16;;;;;;;2.80;2.70;;;19.50;99.90;;;20.05;70.09;102569.06;5053654;28;20063;-65
2022/08/07 06:11:50;;;;;;;2.33;2.22;;;19.70;99.90;;;20.23;69.44;102567.88;5054097;28;20118;-65
2022/08/07 06:14:21;;;;;;;2.83;2.72;;;19.80;99.90;;;20.28;67.96;102572.28;5055487;28;20060;-65
2022/08/07 06:17:03;;;;;;;2.70;2.60;;;20.00;99.90;;;20.40;67.59;102600.75;5070830;28;20506;-65
2022/08/07 06:19:39;;;;;;;2.53;2.42;;;20.00;99.90;;;20.54;67.83;102579.88;5070655;28;20079;-65
2022/08/07 06:22:31;;;;;;;3.20;3.10;;;20.20;99.90;;;20.57;67.61;102582.50;5053884;28;20041;-65
2022/08/07 06:25:20;;;;;;;3.10;3.00;;;20.20;99.90;;;20.68;67.31;102589.47;5070630;28;20045;-65
2022/08/07 06:27:52;;;;;;;2.72;2.63;;;20.30;99.90;;;20.55;66.79;102587.03;5070425;28;20406;-65
2022/08/07 06:30:30;;;;;;;2.70;2.60;;;20.20;99.90;;;20.81;65.46;102583.88;5053612;28;20055;-65
2022/08/07 06:33:19;;;;;;;2.67;2.58;;;20.40;99.90;;;20.79;65.05;102580.31;5053917;28;20292;-65
2022/08/07 06:35:50;;;;;;;2.85;2.75;;;20.50;99.90;;;20.60;63.91;102579.75;5053766;28;20053;-65
2022/08/07 06:38:44;;;;;;;3.63;3.42;;;20.30;99.90;;;20.56;63.38;102576.25;5053401;28;20139;-65
2022/08/07 06:41:35;;;;;;;2.70;2.60;;;20.30;99.90;;;20.64;64.07;102584.16;5053314;28;20103;-65
2022/08/07 06:44:38;;;;;;;2.97;2.88;;;20.30;99.90;;;20.92;64.46;102585.44;5053356;28;20115;-65
2022/08/07 06:47:07;;;;;;;2.53;2.42;;;20.50;99.90;;;20.98;62.03;102582.59;5053550;28;20474;-65
2022/08/07 06:49:41;;;;;;;2.70;2.60;;;20.60;99.90;;;21.25;61.93;102584.75;5053602;28;20068;-65
2022/08/07 06:52:25;;;;;;;2.65;2.55;;;20.90;99.90;;;21.42;61.85;102587.09;5053585;28;20041;-66
2022/08/07 06:55:09;;;;;;;2.90;2.80;;;21.10;99.90;;;21.73;61.51;102581.91;5070090;28;20049;-65
2022/08/07 06:58:01;;;;;;;2.80;2.70;;;21.40;99.90;;;21.99;60.97;102590.31;5053235;28;20044;-66
2022/08/07 07:00:40;;;;;;;2.70;2.60;;;21.70;99.90;;;21.72;58.42;102581.00;5053603;28;20075;-66
2022/08/07 07:03:11;;;;;;;3.30;3.10;;;21.60;99.90;;;21.58;59.53;102584.97;5053070;28;20041;-65
2022/08/07 07:05:45;;;;;;;2.72;2.63;;;21.30;99.90;;;21.49;58.73;102588.72;5054359;28;20509;-66
2022/08/07 07:08:35;;;;;;;2.33;2.22;;;21.20;99.90;;;21.84;58.97;102599.63;5069514;28;20049;-65
2022/08/07 07:11:14;;;;;;;2.90;2.80;;;21.50;99.90;;;22.13;59.23;102601.63;5054420;28;20045;-66
2022/08/07 07:14:04;;;;;;;2.50;2.40;;;21.80;99.90;;;22.31;58.22;102591.28;5069653;28;20083;-66
2022/08/07 07:16:41;;;;;;;2.50;2.40;;;22.10;99.90;;;22.42;57.03;102602.69;5054285;28;20052;-66
2022/08/07 07:19:25;;;;;;;3.00;2.90;;;22.20;99.90;;;21.76;57.09;102609.66;5054026;28;20049;-66
2022/08/07 07:22:17;;;;;;;2.72;2.63;;;21.60;99.90;;;21.51;58.31;102603.03;5069413;28;20047;-66
2022/08/07 07:25:08;;;;;;;2.50;2.40;;;21.20;99.90;;;21.50;58.33;102593.22;5053881;28;20051;-65
2022/08/07 07:28:02;;;;;;;2.88;2.78;;;21.10;99.90;;;21.68;57.26;102594.59;5053283;28;20052;-66
2022/08/07 07:30:56;;;;;;;2.40;2.30;;;21.30;99.90;;;21.82;55.33;102595.19;5054264;28;20124;-66
2022/08/07 07:33:28;;;;;;;5.00;3.17;;;21.50;99.90;;;20.73;56.00;102562.47;5053997;28;20049;-66
2022/08/07 07:35:58;;;;;;;2.80;2.70;;;20.80;99.90;;;20.20;57.46;102582.28;5053865;28;20047;-66
2022/08/07 07:38:41;;;;;;;2.80;2.70;;;20.00;99.90;;;20.30;57.69;102559.69;5053652;28;20414;-67
2022/08/07 07:41:16;;;;;;;2.90;2.80;;;20.00;99.90;;;20.88;57.05;102575.63;5053625;28;20068;-66
2022/08/07 07:43:49;;;;;;;2.88;2.78;;;20.30;99.90;;;21.34;56.41;102583.69;5053321;28;20072;-67
2022/08/07 07:46:40;;;;;;;3.10;3.00;;;20.80;99.90;;;21.72;56.48;102574.75;5053352;28;20047;-66
2022/08/07 07:49:30;;;;;;;2.60;2.50;;;21.30;99.90;;;22.11;56.56;102585.50;5053484;28;20044;-66
2022/08/07 07:52:21;;;;;;;3.25;3.15;;;21.80;99.90;;;22.02;54.05;102585.72;5053300;28;20123;-65
2022/08/07 07:54:51;;;;;;;2.97;2.88;;;21.70;99.90;;;21.49;53.75;102537.56;5053270;28;20564;-63
2022/08/07 07:57:22;;;;;;;2.88;2.78;;;21.40;99.90;;;21.83;54.30;102570.03;5053358;28;20047;-62
2022/08/07 08:00:14;;;;;;;2.60;2.50;;;21.50;99.90;;;21.89;53.37;102576.13;5053205;28;20041;-63
2022/08/07 08:03:05;;;;;;;4.45;4.00;;;21.50;99.90;;;22.23;54.55;102576.22;5053430;28;20115;-63
2022/08/07 08:05:42;;;;;;;2.70;2.60;;;21.80;99.90;;;22.32;51.83;102573.25;5068821;28;20057;-63
2022/08/07 08:08:24;;;;;;;3.95;3.70;;;22.00;99.90;;;22.34;52.22;102582.22;5053331;28;20501;-63
2022/08/07 08:11:06;;;;;;;3.15;2.95;;;22.10;99.90;;;22.37;50.89;102577.66;5053161;28;20083;-63
2022/08/07 08:13:45;;;;;;;2.80;2.70;;;22.10;99.90;;;22.04;50.45;102602.75;5053461;28;20033;-63
2022/08/07 08:16:27;;;;;;;2.45;2.35;;;21.90;99.90;;;22.34;51.21;102568.72;5053026;28;20444;-62
2022/08/07 08:19:00;;;;;;;2.60;2.50;;;21.90;99.90;;;22.36;51.57;102577.66;5052990;28;20410;-64
2022/08/07 08:27:53;;;;;;;3.22;3.13;;;22.20;99.90;;;22.62;50.22;102564.41;5068254;28;20455;-62
2022/08/07 08:30:27;;;;;;;;;;;22.30;99.90;;;23.04;50.54;102574.00;5051686;28;20406;-62
2022/08/07 08:33:01;;;;;;;3.38;3.17;;;22.60;99.90;;;23.21;48.69;102576.22;5052714;28;19927;-61
2022/08/07 08:35:33;;;;;;;2.60;2.50;;;23.00;99.90;;;23.27;49.04;102567.94;5051464;28;20097;-61
2022/08/07 08:38:18;;;;;;;2.70;2.60;;;23.00;99.90;;;23.71;49.77;102567.47;5067993;28;20135;-62
2022/08/07 08:40:54;;;;;;;2.33;2.22;;;23.40;99.90;;;24.14;48.52;102573.31;5052754;28;20072;-62
2022/08/07 08:43:33;;;;;;;2.55;2.45;;;23.80;99.90;;;24.24;46.91;102567.56;5052513;28;20049;-64
2022/08/07 08:46:18;;;;;;;2.15;2.05;;;24.10;99.90;;;24.25;46.80;102574.75;5052451;28;20236;-62
2022/08/07 08:48:59;;;;;;;2.22;2.13;;;24.10;99.90;;;24.50;46.88;102573.88;5052513;28;20037;-62
2022/08/07 08:51:33;;;;;;;2.50;2.40;;;24.30;99.90;;;24.50;45.25;102568.47;5052526;28;20098;-62
2022/08/07 08:54:29;;;;;;;2.33;2.22;;;24.30;99.90;;;24.69;45.46;102561.47;5052672;28;20037;-61
2022/08/07 08:57:04;;;;;;;2.35;2.25;;;24.50;99.90;;;24.93;45.12;102571.41;5052428;28;20517;-61
2022/08/07 08:59:42;;;;;;;2.10;2.00;;;24.70;99.90;;;24.52;44.27;102565.69;5052664;28;20056;-62
2022/08/07 09:02:34;;;;;;;2.22;2.13;;;24.40;99.90;;;24.61;43.68;102535.59;5052455;28;20068;-62
2022/08/07 09:05:29;;;;;;;2.17;2.08;;;24.50;99.90;;;25.13;44.07;102565.25;5067951;28;20049;-62
2022/08/07 09:08:27;;;;;;;2.00;1.90;;;24.80;99.90;;;25.13;43.04;102561.66;5052232;28;20049;-61
2022/08/07 09:11:17;;;;;;;2.00;1.90;;;24.90;99.90;;;25.43;43.72;102565.94;5052440;28;20437;-61
2022/08/07 09:14:13;;;;;;;7.93;2.33;;;25.20;99.90;;;25.72;42.68;102574.72;5052181;28;20069;-61
2022/08/07 09:16:59;;;;;;;2.05;1.95;;;25.50;99.90;;;25.92;42.54;102572.06;5052433;28;20076;-61
2022/08/07 09:19:49;;;;;;;1.80;1.80;;;25.70;99.90;;;26.01;42.36;102578.03;5052305;28;20098;-63
2022/08/07 09:22:41;;;;;;;2.00;1.90;;;25.80;99.90;;;25.79;42.63;102575.31;5051924;28;20052;-62
2022/08/07 09:25:40;;;;;;;2.65;2.45;;;25.60;99.90;;;25.97;42.22;102568.28;5052312;28;20451;-63
2022/08/07 09:28:19;;;;;;;2.00;1.90;;;25.80;99.90;;;25.19;41.74;102565.03;5052425;28;20107;-61
2022/08/07 09:31:20;;;;;;;2.00;1.90;;;25.20;99.90;;;25.65;42.82;102565.03;5052253;28;20145;-62
2022/08/07 09:34:08;;;;;;;2.00;1.90;;;25.40;99.90;;;25.81;41.49;102558.06;5067784;28;20090;-61
2022/08/07 09:36:55;;;;;;;2.30;2.20;;;25.60;99.90;;;25.80;41.86;102550.84;5051966;28;20044;-61
2022/08/07 09:39:37;;;;;;;2.10;2.00;;;25.70;99.90;;;26.06;41.41;102562.47;5052041;28;20068;-62
2022/08/07 09:42:40;;;;;;;1.90;1.80;;;25.90;99.90;;;25.86;42.35;102566.88;5052525;28;20107;-66
2022/08/07 09:45:18;;;;;;;2.40;2.30;;;25.70;99.90;;;25.72;42.53;102557.53;5055821;28;20095;-61
2022/08/07 09:48:26;;;;;;;2.83;2.67;;;25.60;99.90;;;25.90;43.35;102563.09;5055661;28;20136;-62
2022/08/07 09:51:16;;;;;;;2.30;2.20;;;25.70;99.90;;;25.96;42.96;102553.81;5055741;28;20453;-61
2022/08/07 09:54:08;;;;;;;2.13;2.03;;;25.90;99.90;;;25.54;41.68;102439.88;5055502;28;20048;-62
2022/08/07 09:57:57;;;;;;;1.80;1.80;;;26.00;99.90;;;25.63;43.31;102541.63;5055604;28;20055;-60
2022/08/07 10:00:39;;;;;;;4.88;1.98;;;25.70;99.90;;;25.75;43.67;102546.56;5055514;28;20095;-60
2022/08/07 10:03:37;;;;;;;1.75;1.73;;;25.50;99.90;;;25.82;43.59;102543.53;5055182;28;20045;-61
2022/08/07 10:07:18;;;;;;;1.80;1.80;;;25.50;99.90;;;26.04;42.98;102539.94;5055391;28;20131;-61
2022/08/07 10:10:14;;;;;;;2.00;1.90;;;25.80;99.90;;;26.27;43.63;102534.44;5053341;28;20057;-61
2022/08/07 10:13:10;;;;;;;2.00;1.90;;;26.00;99.90;;;26.55;43.00;102540.44;5055272;28;20490;-63
2022/08/07 10:16:15;;;;;;;1.50;1.50;;;26.30;99.90;;;26.71;43.18;102531.56;5055215;28;20045;-62
2022/08/07 10:19:08;;;;;;;1.50;1.50;;;26.50;99.90;;;26.84;42.05;102531.91;5055657;28;20052;-63
2022/08/07 10:21:51;;;;;;;1.58;1.58;;;26.70;99.90;;;27.04;42.49;102537.28;5055047;28;20119;-61
2022/08/07 10:25:16;;;;;;;1.60;1.60;;;26.90;99.90;;;27.16;41.31;102527.72;5070185;28;20140;-62
2022/08/07 10:28:22;;;;;;;2.28;2.10;;;27.00;99.90;;;26.97;40.83;102532.22;5054839;28;20056;-61
2022/08/07 10:31:11;;;;;;;1.77;1.77;;;27.00;99.90;;;26.52;41.24;102524.28;5054743;28;20048;-60
2022/08/07 10:34:07;;;;;;;1.70;1.70;;;26.40;99.90;;;26.54;41.16;102517.84;5054913;28;20513;-61
2022/08/07 10:36:58;;;;;;;1.60;1.60;;;26.30;99.90;;;25.66;42.21;102417.69;5054835;28;20044;-61
2022/08/07 10:39:46;;;;;;;2.10;2.00;;;26.10;99.90;;;26.50;42.59;102516.19;5054836;28;20045;-61
2022/08/07 10:42:41;;;;;;;1.83;1.80;;;26.10;99.90;;;26.50;40.53;102504.47;5054675;28;20068;-60
2022/08/07 10:45:22;;;;;;;1.60;1.60;;;26.30;99.90;;;26.52;41.33;102503.44;5054793;28;20131;-60
2022/08/07 10:48:29;;;;;;;1.73;1.73;;;26.30;99.90;;;26.69;40.59;102510.84;5054594;28;20037;-60
2022/08/07 10:51:09;;;;;;;1.73;1.73;;;26.40;99.90;;;26.75;40.83;102499.75;5054620;28;20076;-63
2022/08/07 10:54:11;;;;;;;1.63;1.63;;;26.50;99.90;;;26.63;40.05;102440.53;5053984;28;20049;-60
2022/08/07 10:56:50;;;;;;;1.73;1.73;;;26.80;99.90;;;26.77;39.48;102506.00;5054489;28;20045;-61
2022/08/07 10:59:47;;;;;;;1.50;1.50;;;26.60;99.90;;;26.88;38.53;102486.47;5054542;28;20057;-60
2022/08/07 11:02:28;;;;;;;1.60;1.60;;;26.70;99.90;;;26.83;38.21;102497.53;5054283;28;20041;-60
2022/08/07 11:05:32;;;;;;;1.80;1.80;;;26.70;99.90;;;26.58;38.71;102494.13;5054164;28;20075;-62
2022/08/07 11:08:26;;;;;;;1.65;1.65;;;26.40;99.90;;;26.08;39.71;102488.22;5054104;28;20045;-60
2022/08/07 11:11:04;;;;;;;1.83;1.83;;;25.90;99.90;;;26.26;39.17;102506.44;5054042;28;20033;-59
2022/08/07 11:13:38;;;;;;;1.95;1.90;;;25.90;99.90;;;26.16;39.27;102485.19;5054339;28;20119;-60
2022/08/07 11:16:31;;;;;;;2.03;1.92;;;25.80;99.90;;;26.15;38.53;102484.28;5053872;28;20041;-60
2022/08/07 11:19:11;;;;;;;1.80;1.80;;;25.80;99.90;;;26.05;39.03;102479.31;5053945;28;20398;-60
2022/08/07 11:22:03;;;;;;;2.00;1.90;;;25.70;99.90;;;25.87;40.61;102478.25;5054121;28;20115;-61
2022/08/07 11:24:42;;;;;;;1.70;1.70;;;25.60;99.90;;;26.03;38.81;102470.34;5053685;28;20049;-61